Time;durP1;ratioP1;P1;durP2;ratioP2;P2;SDS_P1;SDS_P2;PMS_P1;PMS_P2;Temp;Humidity;BMP_temperature;BMP_pressure;BME280_temperature;BME280_humidity;BME280_pressure;Samples;Min_cycle;Max_cycle;Signal;HPM_P1;HPM_P2
2023/03/21 00:01:30;;;;;;;43.38;15.55;;;14.00;99.90;;;;;;6103580;23;20036;-75
2023/03/21 00:03:58;;;;;;;37.03;16.15;;;12.40;99.90;;;;;;6103954;23;20025;-77
2023/03/21 00:06:24;;;;;;;34.30;15.48;;;13.10;99.90;;;;;;6104766;23;20086;-74
2023/03/21 00:08:50;;;;;;;35.03;13.90;;;11.90;99.90;;;;;;6082573;23;20017;-75
2023/03/21 00:11:16;;;;;;;36.03;13.98;;;13.90;99.90;;;;;;6103904;23;20022;-75
2023/03/21 00:13:42;;;;;;;33.38;13.73;;;11.90;99.90;;;;;;6080102;23;20014;-75
2023/03/21 00:16:16;;;;;;;30.75;13.68;;;14.30;99.90;;;;;;6103082;23;20022;-75
2023/03/21 00:18:51;;;;;;;27.23;13.80;;;13.60;99.90;;;;;;6126809;23;20014;-75
2023/03/21 00:21:27;;;;;;;28.02;12.52;;;11.30;99.90;;;;;;6078870;23;20024;-75
2023/03/21 00:23:54;;;;;;;29.00;13.23;;;13.40;99.90;;;;;;6104387;23;20010;-74
2023/03/21 00:26:21;;;;;;;28.85;13.15;;;11.80;99.90;;;;;;6102645;23;20018;-73
2023/03/21 00:28:50;;;;;;;27.42;12.88;;;14.00;99.90;;;;;;6055446;23;20017;-76
2023/03/21 00:31:19;;;;;;;31.98;13.15;;;13.00;99.90;;;;;;6109227;23;20029;-76
2023/03/21 00:33:44;;;;;;;30.92;13.90;;;11.80;99.90;;;;;;6133386;23;20029;-75
2023/03/21 00:36:11;;;;;;;33.53;13.20;;;11.90;99.90;;;;;;6132136;23;20056;-76
2023/03/21 00:38:37;;;;;;;27.67;12.75;;;11.30;99.90;;;;;;6108733;23;20518;-76
2023/03/21 00:41:04;;;;;;;29.90;13.05;;;13.40;99.90;;;;;;6108100;23;20028;-75
2023/03/21 00:43:34;;;;;;;31.85;12.80;;;14.10;99.90;;;;;;6132434;23;20010;-75
2023/03/21 00:46:00;;;;;;;23.65;12.13;;;13.90;99.90;;;;;;6135824;23;20037;-75
2023/03/21 00:48:26;;;;;;;36.03;12.63;;;11.50;99.90;;;;;;6135446;23;20021;-75
2023/03/21 00:50:59;;;;;;;30.85;14.07;;;11.60;99.90;;;;;;6110887;23;20402;-75
2023/03/21 00:53:26;;;;;;;33.75;13.70;;;11.70;99.90;;;;;;6134166;23;20036;-74
2023/03/21 00:55:52;;;;;;;33.47;13.40;;;11.70;99.90;;;;;;6110612;23;20193;-75
2023/03/21 00:58:18;;;;;;;35.17;14.73;;;14.00;99.90;;;;;;6086280;23;20017;-75
2023/03/21 01:00:47;;;;;;;42.00;15.07;;;11.70;99.90;;;;;;6087261;23;20020;-75
2023/03/21 01:03:14;;;;;;;41.22;14.65;;;14.00;99.90;;;;;;6133879;23;20017;-74
2023/03/21 01:08:29;;;;;;;50.92;16.58;;;13.60;99.90;;;;;;6134709;23;20025;-73
2023/03/21 01:10:55;;;;;;;64.05;17.95;;;11.50;99.90;;;;;;6159273;23;20017;-74
2023/03/21 01:13:23;;;;;;;75.45;19.25;;;13.90;99.90;;;;;;6110570;23;20105;-75
2023/03/21 01:15:52;;;;;;;82.88;20.02;;;12.10;99.90;;;;;;6160784;23;20049;-75
2023/03/21 01:18:20;;;;;;;81.43;18.13;;;12.60;99.90;;;;;;6135995;23;20014;-76
2023/03/21 01:20:46;;;;;;;76.85;19.55;;;11.60;99.90;;;;;;6160007;23;20064;-75
2023/03/21 01:23:14;;;;;;;85.88;20.50;;;13.70;99.90;;;;;;6110123;23;20308;-75
2023/03/21 01:25:40;;;;;;;88.00;20.90;;;11.20;99.90;;;;;;6110393;23;20014;-74
2023/03/21 01:28:06;;;;;;;98.93;19.60;;;12.20;99.90;;;;;;6086131;23;20016;-76
2023/03/21 01:30:32;;;;;;;102.68;20.88;;;13.80;99.90;;;;;;6109877;23;20028;-75
2023/03/21 01:33:01;;;;;;;103.43;21.67;;;14.00;99.90;;;;;;6135243;23;20037;-74
2023/03/21 01:35:31;;;;;;;97.60;22.15;;;12.50;99.90;;;;;;6157859;23;20120;-75
2023/03/21 01:37:57;;;;;;;94.53;21.65;;;11.10;99.90;;;;;;6134119;23;20185;-76
2023/03/21 01:40:25;;;;;;;108.10;21.38;;;13.50;99.90;;;;;;6133998;23;20048;-75
2023/03/21 01:42:51;;;;;;;104.15;22.83;;;12.80;99.90;;;;;;6159541;23;20101;-75
2023/03/21 01:45:55;;;;;;;99.07;20.75;;;11.20;99.90;;;;;;6132095;23;20344;-75
2023/03/21 01:48:22;;;;;;;91.70;21.45;;;13.40;99.90;;;;;;6134344;23;20009;-78
2023/03/21 01:50:50;;;;;;;88.82;20.67;;;13.50;99.90;;;;;;6158799;23;20043;-75
2023/03/21 01:53:20;;;;;;;70.90;19.52;;;11.70;99.90;;;;;;6133767;23;20021;-74
2023/03/21 01:55:46;;;;;;;68.13;19.20;;;11.10;99.90;;;;;;6134547;23;20231;-74
2023/03/21 01:58:17;;;;;;;60.40;17.20;;;13.90;99.90;;;;;;6109944;23;20300;-76
2023/03/21 02:00:44;;;;;;;62.92;19.02;;;12.20;99.90;;;;;;6158709;23;20027;-76
2023/03/21 02:03:15;;;;;;;59.40;18.80;;;13.30;99.90;;;;;;6159030;23;20006;-76
2023/03/21 02:05:50;;;;;;;60.05;17.30;;;11.00;99.90;;;;;;6156216;23;20009;-76
2023/03/21 02:08:15;;;;;;;60.10;17.50;;;12.70;99.90;;;;;;6132259;23;20235;-76
2023/03/21 02:10:44;;;;;;;57.58;18.23;;;13.90;99.90;;;;;;6132188;23;20073;-76
2023/03/21 02:13:10;;;;;;;57.28;17.20;;;11.10;99.90;;;;;;6109984;23;20009;-76
2023/03/21 02:15:39;;;;;;;55.17;18.77;;;11.20;99.90;;;;;;6133919;23;20028;-76
2023/03/21 02:18:14;;;;;;;57.55;18.40;;;13.80;99.90;;;;;;6158209;23;20014;-76
2023/03/21 02:21:10;;;;;;;57.00;19.05;;;13.40;99.90;;;;;;6134226;23;20068;-76
2023/03/21 02:24:00;;;;;;;61.42;20.27;;;10.90;99.90;;;;;;6133931;23;20017;-75
2023/03/21 02:26:38;;;;;;;66.63;19.30;;;12.40;99.90;;;;;;6133879;23;20052;-76
2023/03/21 02:29:21;;;;;;;59.63;20.00;;;12.90;99.90;;;;;;6133347;23;20043;-75
2023/03/21 02:32:14;;;;;;;55.10;20.00;;;10.90;99.90;;;;;;6109632;23;20026;-75
2023/03/21 02:34:58;;;;;;;51.65;18.63;;;11.70;99.90;;;;;;6134512;23;20016;-75
2023/03/21 02:37:41;;;;;;;49.95;18.35;;;13.20;99.90;;;;;;6134648;23;20263;-74
2023/03/21 02:40:24;;;;;;;56.40;20.48;;;13.40;99.90;;;;;;6133788;23;20041;-75
2023/03/21 02:43:08;;;;;;;46.85;19.17;;;12.00;99.90;;;;;;6110977;23;20016;-75
2023/03/21 02:46:25;;;;;;;50.60;19.23;;;10.80;99.90;;;;;;6110476;23;20016;-75
2023/03/21 02:48:59;;;;;;;50.53;19.60;;;13.90;99.90;;;;;;6101837;23;20016;-77
2023/03/21 02:51:29;;;;;;;52.42;19.60;;;13.20;99.90;;;;;;6158790;23;20074;-74
2023/03/21 02:54:02;;;;;;;53.13;19.05;;;12.30;99.90;;;;;;6108724;23;20041;-75
2023/03/21 02:56:30;;;;;;;51.78;21.02;;;12.10;99.90;;;;;;6158183;23;20462;-75
2023/03/21 02:58:56;;;;;;;53.30;19.80;;;13.70;99.90;;;;;;6133223;23;20485;-75
2023/03/21 03:01:24;;;;;;;42.92;19.42;;;13.50;99.90;;;;;;6133497;23;20020;-75
2023/03/21 03:03:53;;;;;;;50.75;20.25;;;12.40;99.90;;;;;;6157289;23;20017;-75
2023/03/21 03:06:28;;;;;;;44.85;19.15;;;13.80;99.90;;;;;;6134773;23;20044;-74
2023/03/21 03:09:19;;;;;;;43.08;20.67;;;12.60;99.90;;;;;;6183504;23;20037;-75
2023/03/21 03:11:48;;;;;;;41.55;19.27;;;13.50;99.90;;;;;;6108607;23;20018;-76
2023/03/21 03:14:17;;;;;;;39.72;18.73;;;13.00;99.90;;;;;;6110276;23;20032;-76
2023/03/21 03:17:10;;;;;;;43.15;20.02;;;12.40;99.90;;;;;;6133648;23;20173;-76
2023/03/21 03:20:00;;;;;;;39.15;18.83;;;12.90;99.90;;;;;;6132822;23;20048;-75
2023/03/21 03:23:18;;;;;;;38.20;19.73;;;10.90;99.90;;;;;;6133459;23;20076;-75
2023/03/21 03:25:53;;;;;;;40.88;19.95;;;11.30;99.90;;;;;;6037813;23;20013;-76
2023/03/21 03:28:27;;;;;;;37.80;18.35;;;10.80;99.90;;;;;;6106939;23;20018;-75
2023/03/21 03:30:53;;;;;;;35.30;18.40;;;13.90;99.90;;;;;;6156361;23;20358;-76
2023/03/21 03:33:23;;;;;;;38.58;18.05;;;12.40;99.90;;;;;;6156689;23;20021;-76
2023/03/21 03:35:52;;;;;;;36.40;17.75;;;11.80;99.90;;;;;;6106665;23;20219;-75
2023/03/21 03:38:20;;;;;;;35.80;18.60;;;10.80;99.90;;;;;;6131020;23;20021;-76
2023/03/21 03:40:52;;;;;;;32.15;16.60;;;11.90;99.90;;;;;;6107292;23;20026;-76
2023/03/21 03:43:25;;;;;;;30.05;15.13;;;11.00;99.90;;;;;;6130370;23;20024;-76
2023/03/21 03:45:57;;;;;;;33.70;17.52;;;13.70;99.90;;;;;;6104729;23;20017;-75
2023/03/21 03:48:34;;;;;;;36.58;18.02;;;11.10;99.90;;;;;;6131323;23;20017;-76
2023/03/21 03:51:06;;;;;;;36.95;18.02;;;13.40;99.90;;;;;;6132087;23;20056;-76
2023/03/21 03:53:41;;;;;;;33.45;16.08;;;13.00;99.90;;;;;;6157163;23;20350;-75
2023/03/21 03:56:10;;;;;;;29.65;16.35;;;11.40;99.90;;;;;;6157448;23;20045;-77
2023/03/21 03:58:38;;;;;;;39.13;17.63;;;13.80;99.90;;;;;;6131454;23;20014;-77
2023/03/21 04:01:06;;;;;;;30.77;16.15;;;10.80;99.90;;;;;;6130970;23;20320;-76
2023/03/21 04:03:32;;;;;;;37.25;17.65;;;13.70;99.90;;;;;;6133281;23;20299;-77
2023/03/21 04:05:58;;;;;;;30.30;16.40;;;11.10;99.90;;;;;;6133437;23;20010;-75
2023/03/21 04:08:24;;;;;;;33.85;17.15;;;12.00;99.90;;;;;;6085308;23;20132;-75
2023/03/21 04:10:49;;;;;;;34.75;16.05;;;13.10;99.90;;;;;;6134383;23;20021;-75
2023/03/21 04:13:15;;;;;;;34.72;15.85;;;13.30;99.90;;;;;;6135284;23;20013;-75
2023/03/21 04:15:43;;;;;;;36.70;15.52;;;13.70;99.90;;;;;;6109142;23;20108;-75
2023/03/21 04:18:09;;;;;;;31.85;15.90;;;13.70;99.90;;;;;;6135058;23;20022;-75
2023/03/21 04:20:34;;;;;;;33.58;15.32;;;10.90;99.90;;;;;;6133982;23;20304;-75
2023/03/21 04:23:00;;;;;;;27.48;13.63;;;11.00;99.90;;;;;;6110639;23;20010;-75
2023/03/21 04:25:27;;;;;;;28.20;13.63;;;13.30;99.90;;;;;;6134250;23;20069;-78
2023/03/21 04:27:54;;;;;;;29.30;13.85;;;12.70;99.90;;;;;;6135743;23;20052;-76
2023/03/21 04:30:23;;;;;;;31.60;13.55;;;12.90;99.90;;;;;;6159468;23;20316;-77
2023/03/21 04:32:53;;;;;;;30.17;13.40;;;11.10;99.90;;;;;;6131273;23;20040;-75
2023/03/21 04:35:19;;;;;;;30.48;14.27;;;13.90;99.90;;;;;;6133708;23;20361;-75
2023/03/21 04:37:45;;;;;;;26.85;13.20;;;11.90;99.90;;;;;;6133350;23;20019;-76
2023/03/21 04:40:11;;;;;;;26.55;12.50;;;13.00;99.90;;;;;;6159165;23;20020;-76
2023/03/21 04:42:37;;;;;;;24.33;12.30;;;10.80;99.90;;;;;;6086858;23;20009;-75
2023/03/21 04:45:03;;;;;;;23.23;12.70;;;11.90;99.90;;;;;;6134606;23;20016;-76
2023/03/21 04:47:29;;;;;;;28.40;13.60;;;12.80;99.90;;;;;;6134515;23;20011;-76
2023/03/21 04:49:56;;;;;;;25.98;12.63;;;13.40;99.90;;;;;;6133887;23;20092;-77
2023/03/21 04:52:21;;;;;;;24.67;12.75;;;11.50;99.90;;;;;;6111752;23;20018;-76
2023/03/21 04:54:47;;;;;;;25.90;13.20;;;13.70;99.90;;;;;;6087497;23;20289;-77
2023/03/21 04:57:13;;;;;;;28.77;12.43;;;13.80;99.90;;;;;;6113115;23;20295;-77
2023/03/21 04:59:39;;;;;;;26.40;12.88;;;13.20;99.90;;;;;;6087632;23;20361;-76
2023/03/21 05:02:05;;;;;;;23.08;11.40;;;10.70;99.90;;;;;;6134722;23;20017;-77
2023/03/21 05:04:30;;;;;;;26.75;13.30;;;10.60;99.90;;;;;;6111261;23;20243;-77
2023/03/21 05:06:57;;;;;;;23.35;11.93;;;13.30;99.90;;;;;;6134895;23;20009;-76
2023/03/21 05:09:23;;;;;;;28.48;13.23;;;12.90;99.90;;;;;;6132767;23;20021;-78
2023/03/21 05:11:50;;;;;;;24.83;12.48;;;12.90;99.90;;;;;;6132013;23;20049;-76
2023/03/21 05:14:21;;;;;;;25.33;13.55;;;10.80;99.90;;;;;;6158468;23;20028;-76
2023/03/21 05:16:52;;;;;;;31.83;14.20;;;11.00;99.90;;;;;;6135114;23;20013;-76
2023/03/21 05:19:33;;;;;;;26.55;12.60;;;13.00;99.90;;;;;;6132884;23;20060;-76
2023/03/21 05:22:08;;;;;;;29.90;13.77;;;12.60;99.90;;;;;;6108674;23;20024;-75
2023/03/21 05:24:36;;;;;;;25.90;12.38;;;13.90;99.90;;;;;;6107934;23;20009;-75
2023/03/21 05:27:02;;;;;;;24.58;12.73;;;13.60;99.90;;;;;;6136313;23;20043;-76
2023/03/21 05:29:32;;;;;;;28.67;14.30;;;12.30;99.90;;;;;;6111287;23;20021;-75
2023/03/21 05:32:01;;;;;;;26.85;13.50;;;13.80;99.90;;;;;;6111787;23;20049;-77
2023/03/21 05:34:28;;;;;;;31.42;13.68;;;13.20;99.90;;;;;;6135816;23;20029;-76
2023/03/21 05:36:54;;;;;;;28.17;12.20;;;11.30;99.90;;;;;;6135797;23;20204;-77
2023/03/21 05:39:20;;;;;;;27.10;13.38;;;12.70;99.90;;;;;;6136338;23;20025;-75
2023/03/21 05:41:46;;;;;;;25.20;12.57;;;13.10;99.90;;;;;;6158877;23;20025;-77
2023/03/21 05:44:11;;;;;;;27.38;12.80;;;13.30;99.90;;;;;;6087451;23;20006;-76
2023/03/21 05:46:37;;;;;;;29.23;12.98;;;11.20;99.90;;;;;;6111541;23;20042;-76
2023/03/21 05:49:03;;;;;;;20.52;11.98;;;11.50;99.90;;;;;;6111555;23;20502;-76
2023/03/21 05:51:28;;;;;;;26.38;12.50;;;13.80;99.90;;;;;;6110291;23;20236;-75
2023/03/21 05:53:54;;;;;;;32.63;13.52;;;13.10;99.90;;;;;;6110695;23;20017;-76
2023/03/21 05:56:20;;;;;;;27.02;13.10;;;11.90;99.90;;;;;;6110596;23;20010;-76
2023/03/21 05:58:46;;;;;;;29.77;12.50;;;10.90;99.90;;;;;;6135560;23;20036;-76
2023/03/21 06:01:12;;;;;;;26.02;12.55;;;10.80;99.90;;;;;;6135168;23;20021;-76
2023/03/21 06:03:37;;;;;;;28.02;13.07;;;12.20;99.90;;;;;;6107830;23;20064;-76
2023/03/21 06:06:03;;;;;;;26.95;12.73;;;11.50;99.90;;;;;;6084025;23;20212;-76
2023/03/21 06:08:30;;;;;;;29.83;12.88;;;12.20;99.90;;;;;;6084869;23;20017;-76
2023/03/21 06:10:56;;;;;;;28.80;14.05;;;11.10;99.90;;;;;;6110488;23;20021;-75
2023/03/21 06:13:22;;;;;;;23.50;12.90;;;11.00;99.90;;;;;;6133514;23;20025;-76
2023/03/21 06:15:47;;;;;;;27.88;13.38;;;12.90;99.90;;;;;;6106189;23;20041;-76
2023/03/21 06:18:13;;;;;;;26.88;13.60;;;13.30;99.90;;;;;;6132476;23;20073;-75
2023/03/21 06:20:39;;;;;;;17.40;9.95;;;13.00;99.90;;;;;;6084792;23;20020;-77
2023/03/21 06:23:05;;;;;;;22.08;11.70;;;13.50;99.90;;;;;;6131552;23;20013;-77
2023/03/21 06:25:30;;;;;;;20.92;11.93;;;10.70;99.90;;;;;;6082938;23;20140;-76
2023/03/21 06:27:56;;;;;;;20.80;10.98;;;12.20;99.90;;;;;;6130460;23;20442;-75
2023/03/21 06:30:22;;;;;;;25.52;11.85;;;11.50;99.90;;;;;;6109640;23;20244;-75
2023/03/21 06:32:47;;;;;;;20.05;11.35;;;13.90;99.90;;;;;;6130620;23;20029;-76
2023/03/21 06:35:14;;;;;;;20.92;12.57;;;13.20;99.90;;;;;;6107364;23;20025;-77
2023/03/21 06:37:40;;;;;;;25.90;12.77;;;13.10;99.90;;;;;;6133833;23;20331;-77
2023/03/21 06:40:08;;;;;;;23.02;12.93;;;12.30;99.90;;;;;;6108818;23;20013;-78
2023/03/21 06:42:34;;;;;;;21.92;12.85;;;12.00;99.90;;;;;;6108769;23;20036;-77
2023/03/21 06:45:00;;;;;;;22.45;12.90;;;12.10;99.90;;;;;;6156342;23;20020;-78
2023/03/21 06:47:25;;;;;;;25.27;13.60;;;13.20;99.90;;;;;;6106687;23;20017;-76
2023/03/21 06:49:51;;;;;;;27.35;13.82;;;13.70;99.90;;;;;;6107165;23;20258;-76
2023/03/21 06:52:17;;;;;;;24.27;12.70;;;10.80;99.90;;;;;;6110751;23;20024;-76
2023/03/21 06:54:42;;;;;;;21.45;12.63;;;14.10;99.90;;;;;;6061117;23;20224;-75
2023/03/21 06:57:08;;;;;;;23.02;12.82;;;10.80;99.90;;;;;;6134600;23;20015;-76
2023/03/21 06:59:34;;;;;;;25.88;12.45;;;11.00;99.90;;;;;;6109916;23;20068;-74
2023/03/21 07:02:01;;;;;;;25.27;14.07;;;13.70;99.90;;;;;;6086160;23;20224;-75
2023/03/21 07:04:27;;;;;;;28.58;13.32;;;11.00;99.90;;;;;;6085697;23;20297;-74
2023/03/21 07:06:53;;;;;;;20.15;12.18;;;11.10;99.90;;;;;;6132834;23;20009;-75
2023/03/21 07:09:23;;;;;;;25.13;14.05;;;12.40;99.90;;;;;;6110021;23;20308;-74
2023/03/21 07:15:08;;;;;;;23.20;12.30;;;13.90;99.90;;;;;;6041354;23;20015;-76
2023/03/21 07:17:34;;;;;;;20.90;11.57;;;13.20;99.90;;;;;;6085195;23;20032;-75
2023/03/21 07:20:00;;;;;;;20.52;12.35;;;10.90;99.90;;;;;;6134876;23;20328;-75
2023/03/21 07:22:26;;;;;;;21.38;11.82;;;14.00;99.90;;;;;;6135213;23;20037;-75
2023/03/21 07:24:51;;;;;;;22.10;12.40;;;14.20;99.90;;;;;;6110547;23;20208;-76
2023/03/21 07:27:17;;;;;;;22.45;13.07;;;11.40;99.90;;;;;;6109709;23;20018;-76
2023/03/21 07:29:45;;;;;;;24.05;12.45;;;10.80;99.90;;;;;;6111081;23;20227;-75
2023/03/21 07:32:11;;;;;;;19.38;11.85;;;14.00;99.90;;;;;;6087059;23;20036;-74
2023/03/21 07:34:37;;;;;;;22.23;12.70;;;14.50;99.90;;;;;;6109532;23;20464;-74
2023/03/21 07:37:05;;;;;;;22.58;12.80;;;14.50;99.90;;;;;;6108703;23;20041;-74
2023/03/21 07:39:33;;;;;;;19.20;11.90;;;11.60;99.90;;;;;;6061622;23;20017;-74
2023/03/21 07:41:59;;;;;;;18.73;12.00;;;11.40;99.90;;;;;;6158649;23;20240;-75
2023/03/21 07:44:25;;;;;;;22.65;12.68;;;14.40;99.90;;;;;;6111177;23;20068;-75
2023/03/21 07:46:51;;;;;;;18.08;11.38;;;11.20;99.90;;;;;;6109865;23;20009;-77
2023/03/21 07:49:17;;;;;;;18.73;10.80;;;12.00;99.90;;;;;;6086556;23;20177;-75
2023/03/21 07:51:43;;;;;;;17.40;10.98;;;11.40;99.90;;;;;;6133539;23;20042;-75
2023/03/21 07:54:08;;;;;;;17.55;10.93;;;13.90;99.90;;;;;;6062449;23;20337;-74
2023/03/21 07:56:34;;;;;;;17.42;10.45;;;14.00;99.90;;;;;;6110820;23;20010;-74
2023/03/21 07:59:00;;;;;;;15.48;9.32;;;11.80;99.90;;;;;;6132178;23;20014;-73
2023/03/21 08:01:25;;;;;;;16.25;10.02;;;11.70;99.90;;;;;;6136143;23;20014;-74
2023/03/21 08:03:52;;;;;;;15.50;8.98;;;12.10;99.90;;;;;;6086673;23;20015;-74
2023/03/21 08:06:21;;;;;;;13.30;9.38;;;12.00;99.90;;;;;;6160147;23;20481;-74
2023/03/21 08:08:47;;;;;;;16.17;9.68;;;14.10;99.90;;;;;;6133845;23;20017;-74
2023/03/21 08:11:14;;;;;;;12.32;8.35;;;11.00;99.90;;;;;;6134928;23;20105;-74
2023/03/21 08:13:39;;;;;;;14.15;9.23;;;10.70;99.90;;;;;;6159876;23;20255;-73
2023/03/21 08:16:06;;;;;;;11.60;8.13;;;14.30;99.90;;;;;;6133471;23;20028;-72
2023/03/21 08:18:32;;;;;;;12.77;8.35;;;11.00;99.90;;;;;;6159858;23;20013;-75
2023/03/21 08:20:58;;;;;;;11.32;7.57;;;14.90;99.90;;;;;;6160234;23;20081;-73
2023/03/21 08:23:24;;;;;;;10.25;7.13;;;13.00;99.90;;;;;;6158925;23;20018;-75
2023/03/21 08:25:54;;;;;;;10.05;7.28;;;12.00;99.90;;;;;;6109509;23;20076;-73
2023/03/21 08:28:21;;;;;;;12.43;7.97;;;10.80;99.90;;;;;;6137081;23;20016;-73
2023/03/21 08:30:47;;;;;;;10.05;7.53;;;11.20;99.90;;;;;;6136707;23;20049;-74
2023/03/21 08:33:13;;;;;;;9.27;7.00;;;10.90;99.90;;;;;;6162148;23;20021;-75
2023/03/21 08:35:39;;;;;;;10.88;7.50;;;12.20;99.90;;;;;;6184885;23;20085;-75
2023/03/21 08:38:06;;;;;;;10.93;6.82;;;13.40;99.90;;;;;;6160133;23;20027;-74
2023/03/21 08:40:32;;;;;;;10.43;6.97;;;14.90;99.90;;;;;;6111009;23;20020;-74
2023/03/21 08:42:58;;;;;;;8.88;6.63;;;13.90;99.90;;;;;;6110197;23;20069;-74
2023/03/21 08:45:25;;;;;;;9.75;6.88;;;11.30;99.90;;;;;;6135244;23;20018;-74
2023/03/21 08:47:52;;;;;;;8.90;6.38;;;10.80;99.90;;;;;;6134630;23;20021;-73
2023/03/21 08:50:20;;;;;;;7.60;6.18;;;11.10;99.90;;;;;;6134802;23;20021;-74
2023/03/21 08:52:47;;;;;;;9.07;6.55;;;13.50;99.90;;;;;;6185738;23;20021;-75
2023/03/21 08:55:15;;;;;;;8.30;6.40;;;14.20;99.90;;;;;;6135897;23;20013;-75
2023/03/21 08:57:41;;;;;;;7.13;5.70;;;12.20;99.90;;;;;;6160886;23;20028;-75
2023/03/21 09:00:13;;;;;;;7.97;6.22;;;13.50;99.90;;;;;;6159602;23;20025;-75
2023/03/21 09:02:43;;;;;;;9.57;5.90;;;11.10;99.90;;;;;;6159670;23;20028;-75
2023/03/21 09:05:11;;;;;;;7.80;6.13;;;11.10;99.90;;;;;;6111450;23;20069;-75
2023/03/21 09:07:40;;;;;;;9.02;6.32;;;13.60;99.90;;;;;;6136358;23;20236;-75
2023/03/21 09:10:10;;;;;;;8.48;6.63;;;14.70;99.90;;;;;;6135456;23;20184;-75
2023/03/21 09:12:36;;;;;;;7.13;5.93;;;14.10;99.90;;;;;;6112244;23;20013;-75
2023/03/21 09:15:03;;;;;;;9.70;7.25;;;10.50;99.90;;;;;;6160818;23;20085;-75
2023/03/21 09:17:30;;;;;;;8.80;6.95;;;11.00;99.90;;;;;;6159720;23;20076;-75
2023/03/21 09:19:59;;;;;;;11.25;8.95;;;11.20;99.90;;;;;;6135483;23;20041;-75
2023/03/21 09:22:26;;;;;;;12.57;9.32;;;14.10;99.90;;;;;;6159868;23;20006;-75
2023/03/21 09:24:52;;;;;;;13.85;9.73;;;14.70;99.90;;;;;;6136188;23;20010;-75
2023/03/21 09:27:21;;;;;;;14.45;9.48;;;11.60;99.90;;;;;;6160407;23;20065;-75
2023/03/21 09:29:49;;;;;;;13.70;9.57;;;13.60;99.90;;;;;;6136321;23;20013;-75
2023/03/21 09:32:15;;;;;;;15.20;9.60;;;10.70;99.90;;;;;;6159819;23;20054;-75
2023/03/21 09:34:41;;;;;;;13.57;9.68;;;15.00;99.90;;;;;;6159188;23;20073;-75
2023/03/21 09:37:12;;;;;;;11.90;9.27;;;12.00;99.90;;;;;;6134890;23;20311;-75
2023/03/21 09:39:39;;;;;;;14.90;9.27;;;11.50;99.90;;;;;;6111532;23;20041;-75
2023/03/21 09:42:13;;;;;;;14.75;10.27;;;11.40;99.90;;;;;;6111455;23;20010;-75
2023/03/21 09:44:44;;;;;;;14.88;11.43;;;13.90;99.90;;;;;;6136253;23;20290;-75
2023/03/21 09:47:21;;;;;;;18.73;11.95;;;12.00;99.90;;;;;;6135305;23;20037;-76
2023/03/21 09:49:58;;;;;;;20.13;12.43;;;14.20;99.90;;;;;;6159650;23;20013;-75
2023/03/21 09:52:29;;;;;;;16.02;11.00;;;14.20;99.90;;;;;;6159334;23;20035;-76
2023/03/21 09:54:56;;;;;;;19.63;12.77;;;15.30;99.90;;;;;;6135384;23;20061;-75
2023/03/21 09:57:27;;;;;;;19.92;13.38;;;14.30;99.90;;;;;;6087407;23;20378;-75
2023/03/21 09:59:55;;;;;;;16.92;12.30;;;14.50;99.90;;;;;;6135917;23;20037;-75
2023/03/21 10:02:46;;;;;;;18.25;12.60;;;15.00;99.90;;;;;;6160165;23;20009;-76
2023/03/21 10:05:29;;;;;;;21.67;14.27;;;13.90;99.90;;;;;;6135425;23;20208;-76
2023/03/21 10:07:54;;;;;;;24.88;15.07;;;10.50;99.90;;;;;;6135111;23;20292;-76
2023/03/21 10:10:30;;;;;;;20.92;14.05;;;13.50;99.90;;;;;;6135853;23;20047;-75
2023/03/21 10:12:55;;;;;;;17.80;13.48;;;14.30;99.90;;;;;;6111104;23;20021;-76
2023/03/21 10:15:24;;;;;;;20.95;14.07;;;14.80;99.90;;;;;;6087374;23;20315;-76
2023/03/21 10:18:01;;;;;;;22.13;15.40;;;14.60;99.90;;;;;;6160867;23;20339;-75
2023/03/21 10:20:35;;;;;;;23.10;15.13;;;14.30;99.90;;;;;;6160146;23;20065;-77
2023/03/21 10:23:05;;;;;;;21.45;15.07;;;13.00;99.90;;;;;;6135623;23;20077;-75
2023/03/21 10:25:38;;;;;;;23.98;16.63;;;11.30;99.90;;;;;;6134844;23;20017;-75
2023/03/21 10:28:06;;;;;;;28.67;17.63;;;14.70;99.90;;;;;;6135120;23;20024;-75
2023/03/21 10:30:42;;;;;;;21.25;15.77;;;14.10;99.90;;;;;;6135673;23;20072;-75
2023/03/21 10:33:14;;;;;;;25.50;17.60;;;13.70;99.90;;;;;;6134894;23;20022;-75
2023/03/21 10:35:43;;;;;;;28.50;18.70;;;15.00;99.90;;;;;;6111144;23;20311;-75
2023/03/21 10:38:16;;;;;;;34.25;20.00;;;14.20;99.90;;;;;;6134977;23;20013;-74
2023/03/21 10:40:42;;;;;;;25.35;18.38;;;14.90;99.90;;;;;;6135328;23;20037;-75
2023/03/21 10:43:34;;;;;;;32.72;20.42;;;11.50;99.90;;;;;;6085536;23;20017;-74
2023/03/21 10:46:08;;;;;;;33.17;21.63;;;14.10;99.90;;;;;;6134380;23;20010;-74
2023/03/21 10:48:36;;;;;;;30.55;19.90;;;11.40;99.90;;;;;;6135268;23;20009;-74
2023/03/21 10:51:06;;;;;;;30.55;19.35;;;14.00;99.90;;;;;;6135138;23;20020;-73
2023/03/21 10:53:37;;;;;;;27.85;18.90;;;10.60;99.90;;;;;;6135194;23;20063;-73
2023/03/21 10:56:10;;;;;;;25.25;17.88;;;14.00;99.90;;;;;;6159301;23;20021;-74
2023/03/21 10:58:41;;;;;;;30.30;18.10;;;14.90;99.90;;;;;;6135299;23;20241;-75
2023/03/21 11:01:14;;;;;;;29.45;19.10;;;12.20;99.90;;;;;;6158234;23;20029;-74
2023/03/21 11:03:45;;;;;;;25.35;17.95;;;10.90;99.90;;;;;;6110604;23;20014;-73
2023/03/21 11:06:31;;;;;;;26.83;18.63;;;11.50;99.90;;;;;;6110041;23;20445;-74
2023/03/21 11:09:12;;;;;;;28.95;19.13;;;14.90;99.90;;;;;;6135065;23;20009;-74
2023/03/21 11:11:40;;;;;;;29.13;19.02;;;15.60;99.90;;;;;;6135456;23;20157;-75
2023/03/21 11:14:23;;;;;;;27.73;20.05;;;11.70;99.90;;;;;;6134992;23;20021;-75
2023/03/21 11:16:50;;;;;;;27.48;17.88;;;11.20;99.90;;;;;;6159971;23;20304;-73
2023/03/21 11:19:19;;;;;;;25.70;16.80;;;13.50;99.90;;;;;;6109290;23;20299;-73
2023/03/21 11:21:45;;;;;;;22.15;16.40;;;15.90;99.90;;;;;;6134959;23;20098;-73
2023/03/21 11:24:15;;;;;;;23.60;15.90;;;14.60;99.90;;;;;;6062141;23;20020;-73
2023/03/21 11:26:43;;;;;;;20.05;14.57;;;14.20;99.90;;;;;;6135212;23;20037;-73
2023/03/21 11:29:31;;;;;;;21.25;14.77;;;14.90;99.90;;;;;;6183840;23;20370;-73
2023/03/21 11:32:28;;;;;;;21.27;12.98;;;12.30;99.90;;;;;;6135075;23;20180;-74
2023/03/21 11:35:19;;;;;;;17.42;12.55;;;15.60;99.90;;;;;;6108986;23;20034;-74
2023/03/21 11:37:52;;;;;;;19.48;13.95;;;15.40;99.90;;;;;;6134166;23;20009;-75
2023/03/21 11:40:24;;;;;;;22.33;14.68;;;12.60;99.90;;;;;;6134247;23;20014;-71
2023/03/21 11:42:59;;;;;;;22.60;13.50;;;14.30;99.90;;;;;;6159779;23;20016;-72
2023/03/21 11:45:31;;;;;;;19.98;13.77;;;12.70;99.90;;;;;;6134646;23;20021;-72
2023/03/21 11:47:59;;;;;;;17.88;12.82;;;12.70;99.90;;;;;;6135200;23;20010;-76
2023/03/21 11:50:43;;;;;;;21.98;14.00;;;12.30;99.90;;;;;;6134490;23;20060;-74
2023/03/21 11:53:18;;;;;;;17.48;12.23;;;11.80;99.90;;;;;;6133704;23;20029;-74
2023/03/21 11:56:16;;;;;;;21.95;12.32;;;12.50;99.90;;;;;;6135088;23;20042;-73
2023/03/21 11:58:54;;;;;;;16.15;12.77;;;15.90;99.90;;;;;;6090774;23;20232;-74
2023/03/21 12:01:37;;;;;;;18.60;12.55;;;14.60;99.90;;;;;;6134897;23;20080;-75
2023/03/21 12:04:19;;;;;;;18.42;11.07;;;12.50;99.90;;;;;;6136339;23;20157;-74
2023/03/21 12:06:55;;;;;;;14.93;10.90;;;12.10;99.90;;;;;;6161542;23;20062;-73
2023/03/21 12:09:44;;;;;;;20.42;13.48;;;14.90;99.90;;;;;;6134869;23;20029;-76
2023/03/21 12:12:32;;;;;;;16.52;12.02;;;13.40;99.90;;;;;;6135527;23;20009;-73
2023/03/21 12:15:13;;;;;;;18.50;12.73;;;15.80;99.90;;;;;;6186603;23;20009;-73
2023/03/21 12:18:01;;;;;;;22.45;12.20;;;14.10;99.90;;;;;;6136772;23;20009;-74
2023/03/21 12:20:58;;;;;;;16.58;11.60;;;14.30;99.90;;;;;;6185832;23;20724;-74
2023/03/21 12:23:50;;;;;;;15.85;11.38;;;13.90;99.90;;;;;;6160030;23;20009;-73
2023/03/21 12:26:25;;;;;;;15.70;9.68;;;15.80;99.90;;;;;;6159801;23;20009;-74
2023/03/21 12:28:57;;;;;;;16.42;11.10;;;15.00;99.90;;;;;;6137170;23;20011;-73
2023/03/21 12:31:41;;;;;;;15.70;11.48;;;12.60;99.90;;;;;;6135044;23;20022;-73
2023/03/21 12:34:27;;;;;;;18.52;10.90;;;13.10;99.90;;;;;;6135706;23;20080;-72
2023/03/21 12:37:07;;;;;;;15.52;10.55;;;14.00;99.90;;;;;;6053637;23;20056;-72
2023/03/21 12:39:35;;;;;;;13.80;9.55;;;13.60;99.90;;;;;;6111614;23;20021;-75
2023/03/21 12:42:41;;;;;;;15.85;10.48;;;14.50;99.90;;;;;;6136381;23;20056;-72
2023/03/21 12:45:17;;;;;;;15.32;9.10;;;13.50;99.90;;;;;;6135173;23;20016;-73
2023/03/21 12:47:48;;;;;;;16.52;10.07;;;15.20;99.90;;;;;;6111509;23;20328;-73
2023/03/21 12:50:20;;;;;;;14.25;9.88;;;14.90;99.90;;;;;;6135219;23;20021;-72
2023/03/21 12:52:52;;;;;;;16.05;10.40;;;12.10;99.90;;;;;;6136381;23;20017;-75